sensor_id;sensor_type;location;lat;lon;timestamp;P1;durP1;ratioP1;P2;durP2;ratioP2
20844;SDS011;10583;49.084;8.646;2023-03-19T00:02:25;8.50;;;8.50;;
20844;SDS011;10583;49.084;8.646;2023-03-19T00:04:52;8.03;;;8.03;;
20844;SDS011;10583;49.084;8.646;2023-03-19T00:07:19;7.50;;;7.50;;
20844;SDS011;10583;49.084;8.646;2023-03-19T00:09:46;7.50;;;7.50;;
20844;SDS011;10583;49.084;8.646;2023-03-19T00:12:12;8.10;;;8.10;;
20844;SDS011;10583;49.084;8.646;2023-03-19T00:14:40;8.30;;;8.30;;
20844;SDS011;10583;49.084;8.646;2023-03-19T00:17:07;8.67;;;8.67;;
20844;SDS011;10583;49.084;8.646;2023-03-19T00:19:35;7.77;;;7.77;;
20844;SDS011;10583;49.084;8.646;2023-03-19T00:22:01;8.13;;;8.13;;
20844;SDS011;10583;49.084;8.646;2023-03-19T00:24:28;7.90;;;7.90;;
20844;SDS011;10583;49.084;8.646;2023-03-19T00:26:55;7.10;;;7.10;;
20844;SDS011;10583;49.084;8.646;2023-03-19T00:29:21;7.60;;;7.60;;
20844;SDS011;10583;49.084;8.646;2023-03-19T00:31:48;6.67;;;6.67;;
20844;SDS011;10583;49.084;8.646;2023-03-19T00:34:15;7.03;;;7.03;;
20844;SDS011;10583;49.084;8.646;2023-03-19T00:36:44;6.73;;;6.73;;
20844;SDS011;10583;49.084;8.646;2023-03-19T00:39:11;6.00;;;6.00;;
20844;SDS011;10583;49.084;8.646;2023-03-19T00:41:38;6.23;;;6.23;;
20844;SDS011;10583;49.084;8.646;2023-03-19T00:44:05;6.37;;;6.37;;
20844;SDS011;10583;49.084;8.646;2023-03-19T00:46:32;6.80;;;6.80;;
20844;SDS011;10583;49.084;8.646;2023-03-19T00:48:59;5.93;;;5.93;;
20844;SDS011;10583;49.084;8.646;2023-03-19T00:51:26;6.57;;;6.57;;
20844;SDS011;10583;49.084;8.646;2023-03-19T00:53:54;6.60;;;6.60;;
20844;SDS011;10583;49.084;8.646;2023-03-19T00:56:21;6.80;;;6.80;;
20844;SDS011;10583;49.084;8.646;2023-03-19T00:58:48;6.67;;;6.67;;
20844;SDS011;10583;49.084;8.646;2023-03-19T01:01:15;6.70;;;6.70;;
20844;SDS011;10583;49.084;8.646;2023-03-19T01:03:43;7.27;;;7.27;;
20844;SDS011;10583;49.084;8.646;2023-03-19T01:06:10;7.33;;;7.33;;
20844;SDS011;10583;49.084;8.646;2023-03-19T01:08:37;8.17;;;8.17;;
20844;SDS011;10583;49.084;8.646;2023-03-19T01:11:08;7.07;;;7.07;;
20844;SDS011;10583;49.084;8.646;2023-03-19T01:13:36;7.40;;;7.40;;
20844;SDS011;10583;49.084;8.646;2023-03-19T01:16:03;6.10;;;6.10;;
20844;SDS011;10583;49.084;8.646;2023-03-19T01:18:31;7.00;;;7.00;;
20844;SDS011;10583;49.084;8.646;2023-03-19T01:20:57;7.40;;;7.40;;
20844;SDS011;10583;49.084;8.646;2023-03-19T01:23:24;6.63;;;6.63;;
20844;SDS011;10583;49.084;8.646;2023-03-19T01:25:51;6.43;;;6.43;;
20844;SDS011;10583;49.084;8.646;2023-03-19T01:28:19;5.77;;;5.77;;
20844;SDS011;10583;49.084;8.646;2023-03-19T01:30:46;5.83;;;5.83;;
20844;SDS011;10583;49.084;8.646;2023-03-19T01:33:13;6.80;;;6.80;;
20844;SDS011;10583;49.084;8.646;2023-03-19T01:35:40;6.27;;;6.27;;
20844;SDS011;10583;49.084;8.646;2023-03-19T01:38:07;5.13;;;5.13;;
20844;SDS011;10583;49.084;8.646;2023-03-19T01:40:34;5.47;;;5.47;;
20844;SDS011;10583;49.084;8.646;2023-03-19T01:43:12;5.60;;;5.60;;
20844;SDS011;10583;49.084;8.646;2023-03-19T01:45:43;5.43;;;5.43;;
20844;SDS011;10583;49.084;8.646;2023-03-19T01:48:23;5.17;;;5.17;;
20844;SDS011;10583;49.084;8.646;2023-03-19T01:50:54;5.43;;;5.43;;
20844;SDS011;10583;49.084;8.646;2023-03-19T01:53:28;5.20;;;5.20;;
20844;SDS011;10583;49.084;8.646;2023-03-19T01:55:58;5.07;;;5.07;;
20844;SDS011;10583;49.084;8.646;2023-03-19T01:58:28;5.57;;;5.57;;
20844;SDS011;10583;49.084;8.646;2023-03-19T02:00:57;5.07;;;5.07;;
20844;SDS011;10583;49.084;8.646;2023-03-19T02:03:24;5.30;;;5.30;;
20844;SDS011;10583;49.084;8.646;2023-03-19T02:05:51;5.40;;;5.40;;
20844;SDS011;10583;49.084;8.646;2023-03-19T02:08:20;4.90;;;4.90;;
20844;SDS011;10583;49.084;8.646;2023-03-19T02:10:48;5.03;;;5.03;;
20844;SDS011;10583;49.084;8.646;2023-03-19T02:13:16;4.53;;;4.53;;
20844;SDS011;10583;49.084;8.646;2023-03-19T02:15:43;4.80;;;4.80;;
20844;SDS011;10583;49.084;8.646;2023-03-19T02:18:11;4.57;;;4.57;;
20844;SDS011;10583;49.084;8.646;2023-03-19T02:20:41;4.33;;;4.33;;
20844;SDS011;10583;49.084;8.646;2023-03-19T02:23:14;4.73;;;4.73;;
20844;SDS011;10583;49.084;8.646;2023-03-19T02:26:02;4.93;;;4.93;;
20844;SDS011;10583;49.084;8.646;2023-03-19T02:28:31;5.20;;;5.20;;
20844;SDS011;10583;49.084;8.646;2023-03-19T02:31:00;5.33;;;5.33;;
20844;SDS011;10583;49.084;8.646;2023-03-19T02:33:27;5.73;;;5.73;;
20844;SDS011;10583;49.084;8.646;2023-03-19T02:35:54;4.80;;;4.80;;
20844;SDS011;10583;49.084;8.646;2023-03-19T02:38:22;5.20;;;5.20;;
20844;SDS011;10583;49.084;8.646;2023-03-19T02:40:51;5.67;;;5.67;;
20844;SDS011;10583;49.084;8.646;2023-03-19T02:43:21;5.73;;;5.73;;
20844;SDS011;10583;49.084;8.646;2023-03-19T02:45:48;4.90;;;4.90;;
20844;SDS011;10583;49.084;8.646;2023-03-19T02:48:15;5.60;;;5.60;;
20844;SDS011;10583;49.084;8.646;2023-03-19T02:50:42;5.00;;;5.00;;
20844;SDS011;10583;49.084;8.646;2023-03-19T02:53:09;5.00;;;5.00;;
20844;SDS011;10583;49.084;8.646;2023-03-19T02:55:37;5.00;;;5.00;;
20844;SDS011;10583;49.084;8.646;2023-03-19T02:58:04;4.37;;;4.37;;
20844;SDS011;10583;49.084;8.646;2023-03-19T03:00:32;4.60;;;4.60;;
20844;SDS011;10583;49.084;8.646;2023-03-19T03:02:59;4.17;;;4.17;;
20844;SDS011;10583;49.084;8.646;2023-03-19T03:05:26;4.37;;;4.37;;
20844;SDS011;10583;49.084;8.646;2023-03-19T03:07:53;4.27;;;4.27;;
20844;SDS011;10583;49.084;8.646;2023-03-19T03:10:20;3.80;;;3.80;;
20844;SDS011;10583;49.084;8.646;2023-03-19T03:12:46;4.40;;;4.40;;
20844;SDS011;10583;49.084;8.646;2023-03-19T03:15:13;3.90;;;3.90;;
20844;SDS011;10583;49.084;8.646;2023-03-19T03:17:42;3.30;;;3.30;;
20844;SDS011;10583;49.084;8.646;2023-03-19T03:20:10;3.37;;;3.37;;
20844;SDS011;10583;49.084;8.646;2023-03-19T03:22:38;3.80;;;3.80;;
20844;SDS011;10583;49.084;8.646;2023-03-19T03:25:06;4.13;;;4.13;;
20844;SDS011;10583;49.084;8.646;2023-03-19T03:27:34;4.20;;;4.20;;
20844;SDS011;10583;49.084;8.646;2023-03-19T03:30:01;4.17;;;4.17;;
20844;SDS011;10583;49.084;8.646;2023-03-19T03:32:29;5.40;;;5.40;;
20844;SDS011;10583;49.084;8.646;2023-03-19T03:34:57;4.77;;;4.77;;
20844;SDS011;10583;49.084;8.646;2023-03-19T03:37:24;4.30;;;4.30;;
20844;SDS011;10583;49.084;8.646;2023-03-19T03:39:50;4.20;;;4.20;;
20844;SDS011;10583;49.084;8.646;2023-03-19T03:42:17;5.10;;;5.10;;
20844;SDS011;10583;49.084;8.646;2023-03-19T03:44:44;5.03;;;5.03;;
20844;SDS011;10583;49.084;8.646;2023-03-19T03:47:11;4.73;;;4.73;;
20844;SDS011;10583;49.084;8.646;2023-03-19T03:49:38;4.80;;;4.80;;
20844;SDS011;10583;49.084;8.646;2023-03-19T03:52:07;4.70;;;4.70;;
20844;SDS011;10583;49.084;8.646;2023-03-19T03:54:34;5.03;;;5.03;;
20844;SDS011;10583;49.084;8.646;2023-03-19T03:57:01;4.50;;;4.50;;
20844;SDS011;10583;49.084;8.646;2023-03-19T03:59:27;4.17;;;4.17;;
20844;SDS011;10583;49.084;8.646;2023-03-19T04:01:54;4.07;;;4.07;;
20844;SDS011;10583;49.084;8.646;2023-03-19T04:04:21;3.93;;;3.93;;
20844;SDS011;10583;49.084;8.646;2023-03-19T04:06:48;4.17;;;4.17;;
20844;SDS011;10583;49.084;8.646;2023-03-19T04:09:16;4.30;;;4.30;;
20844;SDS011;10583;49.084;8.646;2023-03-19T04:11:43;4.10;;;4.10;;
20844;SDS011;10583;49.084;8.646;2023-03-19T04:14:10;4.17;;;4.17;;
20844;SDS011;10583;49.084;8.646;2023-03-19T04:16:37;3.80;;;3.80;;
20844;SDS011;10583;49.084;8.646;2023-03-19T04:19:04;4.53;;;4.53;;
20844;SDS011;10583;49.084;8.646;2023-03-19T04:21:31;4.10;;;4.10;;
20844;SDS011;10583;49.084;8.646;2023-03-19T04:23:58;4.17;;;4.17;;
20844;SDS011;10583;49.084;8.646;2023-03-19T04:26:27;4.27;;;4.27;;
20844;SDS011;10583;49.084;8.646;2023-03-19T04:28:54;4.00;;;4.00;;
20844;SDS011;10583;49.084;8.646;2023-03-19T04:31:22;4.13;;;4.13;;
20844;SDS011;10583;49.084;8.646;2023-03-19T04:33:49;4.23;;;4.23;;
20844;SDS011;10583;49.084;8.646;2023-03-19T04:36:16;4.60;;;4.60;;
20844;SDS011;10583;49.084;8.646;2023-03-19T04:38:43;4.47;;;4.47;;
20844;SDS011;10583;49.084;8.646;2023-03-19T04:41:11;4.43;;;4.43;;
20844;SDS011;10583;49.084;8.646;2023-03-19T04:43:39;4.10;;;4.10;;
20844;SDS011;10583;49.084;8.646;2023-03-19T04:46:05;4.00;;;4.00;;
20844;SDS011;10583;49.084;8.646;2023-03-19T04:48:33;3.73;;;3.73;;
20844;SDS011;10583;49.084;8.646;2023-03-19T04:51:00;4.23;;;4.23;;
20844;SDS011;10583;49.084;8.646;2023-03-19T04:53:28;4.17;;;4.17;;
20844;SDS011;10583;49.084;8.646;2023-03-19T04:55:54;4.30;;;4.30;;
20844;SDS011;10583;49.084;8.646;2023-03-19T04:58:21;3.70;;;3.70;;
20844;SDS011;10583;49.084;8.646;2023-03-19T05:00:49;4.43;;;4.43;;
20844;SDS011;10583;49.084;8.646;2023-03-19T05:03:16;3.90;;;3.90;;
20844;SDS011;10583;49.084;8.646;2023-03-19T05:05:43;3.67;;;3.67;;
20844;SDS011;10583;49.084;8.646;2023-03-19T05:08:10;3.60;;;3.60;;
20844;SDS011;10583;49.084;8.646;2023-03-19T05:10:37;3.90;;;3.90;;
20844;SDS011;10583;49.084;8.646;2023-03-19T05:13:05;3.73;;;3.73;;
20844;SDS011;10583;49.084;8.646;2023-03-19T05:15:32;3.50;;;3.50;;
20844;SDS011;10583;49.084;8.646;2023-03-19T05:18:00;3.17;;;3.17;;
20844;SDS011;10583;49.084;8.646;2023-03-19T05:20:27;3.00;;;3.00;;
20844;SDS011;10583;49.084;8.646;2023-03-19T05:22:54;3.63;;;3.63;;
20844;SDS011;10583;49.084;8.646;2023-03-19T05:25:21;3.30;;;3.30;;
20844;SDS011;10583;49.084;8.646;2023-03-19T05:27:47;3.33;;;3.33;;
20844;SDS011;10583;49.084;8.646;2023-03-19T05:30:14;3.43;;;3.43;;
20844;SDS011;10583;49.084;8.646;2023-03-19T05:32:42;3.30;;;3.30;;
20844;SDS011;10583;49.084;8.646;2023-03-19T05:35:12;3.33;;;3.33;;
20844;SDS011;10583;49.084;8.646;2023-03-19T05:37:39;3.33;;;3.33;;
20844;SDS011;10583;49.084;8.646;2023-03-19T05:40:06;3.80;;;3.80;;
20844;SDS011;10583;49.084;8.646;2023-03-19T05:42:34;3.80;;;3.80;;
20844;SDS011;10583;49.084;8.646;2023-03-19T05:45:02;3.80;;;3.80;;
20844;SDS011;10583;49.084;8.646;2023-03-19T05:47:29;3.47;;;3.47;;
20844;SDS011;10583;49.084;8.646;2023-03-19T05:49:56;3.30;;;3.30;;
20844;SDS011;10583;49.084;8.646;2023-03-19T05:52:24;3.93;;;3.93;;
20844;SDS011;10583;49.084;8.646;2023-03-19T05:54:51;3.37;;;3.37;;
20844;SDS011;10583;49.084;8.646;2023-03-19T05:57:18;3.50;;;3.50;;
20844;SDS011;10583;49.084;8.646;2023-03-19T05:59:45;3.33;;;3.33;;
20844;SDS011;10583;49.084;8.646;2023-03-19T06:02:11;3.67;;;3.67;;
20844;SDS011;10583;49.084;8.646;2023-03-19T06:04:38;3.90;;;3.90;;
20844;SDS011;10583;49.084;8.646;2023-03-19T06:07:05;3.97;;;3.97;;
20844;SDS011;10583;49.084;8.646;2023-03-19T06:09:34;3.70;;;3.70;;
20844;SDS011;10583;49.084;8.646;2023-03-19T06:12:01;3.57;;;3.57;;
20844;SDS011;10583;49.084;8.646;2023-03-19T06:14:28;4.10;;;4.10;;
20844;SDS011;10583;49.084;8.646;2023-03-19T06:16:54;3.70;;;3.70;;
20844;SDS011;10583;49.084;8.646;2023-03-19T06:19:21;3.57;;;3.57;;
20844;SDS011;10583;49.084;8.646;2023-03-19T06:21:48;3.77;;;3.77;;
20844;SDS011;10583;49.084;8.646;2023-03-19T06:24:15;3.80;;;3.80;;
20844;SDS011;10583;49.084;8.646;2023-03-19T06:26:43;3.57;;;3.57;;
20844;SDS011;10583;49.084;8.646;2023-03-19T06:29:10;3.43;;;3.43;;
20844;SDS011;10583;49.084;8.646;2023-03-19T06:31:36;3.50;;;3.50;;
20844;SDS011;10583;49.084;8.646;2023-03-19T06:34:05;3.40;;;3.40;;
20844;SDS011;10583;49.084;8.646;2023-03-19T06:36:32;3.10;;;3.10;;
20844;SDS011;10583;49.084;8.646;2023-03-19T06:38:59;3.77;;;3.77;;
20844;SDS011;10583;49.084;8.646;2023-03-19T06:41:27;3.30;;;3.30;;
20844;SDS011;10583;49.084;8.646;2023-03-19T06:43:55;3.07;;;3.07;;
20844;SDS011;10583;49.084;8.646;2023-03-19T06:46:21;3.40;;;3.40;;
20844;SDS011;10583;49.084;8.646;2023-03-19T06:48:48;3.13;;;3.13;;
20844;SDS011;10583;49.084;8.646;2023-03-19T06:51:15;3.40;;;3.40;;
20844;SDS011;10583;49.084;8.646;2023-03-19T06:53:42;3.63;;;3.63;;
20844;SDS011;10583;49.084;8.646;2023-03-19T06:56:09;3.30;;;3.30;;
20844;SDS011;10583;49.084;8.646;2023-03-19T06:58:35;3.33;;;3.33;;
20844;SDS011;10583;49.084;8.646;2023-03-19T07:01:04;3.50;;;3.50;;
20844;SDS011;10583;49.084;8.646;2023-03-19T07:03:30;3.60;;;3.60;;
20844;SDS011;10583;49.084;8.646;2023-03-19T07:05:57;3.70;;;3.70;;
20844;SDS011;10583;49.084;8.646;2023-03-19T07:08:24;4.10;;;4.10;;
20844;SDS011;10583;49.084;8.646;2023-03-19T07:10:53;3.73;;;3.73;;
20844;SDS011;10583;49.084;8.646;2023-03-19T07:13:20;3.60;;;3.60;;
20844;SDS011;10583;49.084;8.646;2023-03-19T07:15:47;3.77;;;3.77;;
20844;SDS011;10583;49.084;8.646;2023-03-19T07:18:15;3.80;;;3.80;;
20844;SDS011;10583;49.084;8.646;2023-03-19T07:20:42;3.50;;;3.50;;
20844;SDS011;10583;49.084;8.646;2023-03-19T07:23:08;3.50;;;3.50;;
20844;SDS011;10583;49.084;8.646;2023-03-19T07:25:35;3.57;;;3.57;;
20844;SDS011;10583;49.084;8.646;2023-03-19T07:28:02;3.40;;;3.40;;
20844;SDS011;10583;49.084;8.646;2023-03-19T07:30:29;3.80;;;3.80;;
20844;SDS011;10583;49.084;8.646;2023-03-19T07:32:56;3.47;;;3.47;;
20844;SDS011;10583;49.084;8.646;2023-03-19T07:35:24;3.10;;;3.10;;
20844;SDS011;10583;49.084;8.646;2023-03-19T07:37:52;3.17;;;3.17;;
20844;SDS011;10583;49.084;8.646;2023-03-19T07:40:18;3.17;;;3.17;;
20844;SDS011;10583;49.084;8.646;2023-03-19T07:42:45;3.37;;;3.37;;
20844;SDS011;10583;49.084;8.646;2023-03-19T07:45:12;3.20;;;3.20;;
20844;SDS011;10583;49.084;8.646;2023-03-19T07:47:38;3.10;;;3.10;;
20844;SDS011;10583;49.084;8.646;2023-03-19T07:50:06;3.67;;;3.67;;
20844;SDS011;10583;49.084;8.646;2023-03-19T07:52:35;3.40;;;3.40;;
20844;SDS011;10583;49.084;8.646;2023-03-19T07:55:02;3.00;;;3.00;;
20844;SDS011;10583;49.084;8.646;2023-03-19T07:57:29;3.33;;;3.33;;
20844;SDS011;10583;49.084;8.646;2023-03-19T07:59:56;2.83;;;2.83;;
20844;SDS011;10583;49.084;8.646;2023-03-19T08:02:29;2.67;;;2.67;;
20844;SDS011;10583;49.084;8.646;2023-03-19T08:04:56;2.97;;;2.97;;
20844;SDS011;10583;49.084;8.646;2023-03-19T08:07:26;2.80;;;2.80;;
20844;SDS011;10583;49.084;8.646;2023-03-19T08:09:54;2.50;;;2.50;;
20844;SDS011;10583;49.084;8.646;2023-03-19T08:12:21;2.33;;;2.33;;
20844;SDS011;10583;49.084;8.646;2023-03-19T08:14:48;2.13;;;2.13;;
20844;SDS011;10583;49.084;8.646;2023-03-19T08:17:14;2.03;;;2.03;;
20844;SDS011;10583;49.084;8.646;2023-03-19T08:19:41;2.40;;;2.40;;
20844;SDS011;10583;49.084;8.646;2023-03-19T08:22:08;2.37;;;2.37;;
20844;SDS011;10583;49.084;8.646;2023-03-19T08:24:35;2.10;;;2.10;;
20844;SDS011;10583;49.084;8.646;2023-03-19T08:27:03;2.40;;;2.40;;
20844;SDS011;10583;49.084;8.646;2023-03-19T08:29:32;2.60;;;2.60;;
20844;SDS011;10583;49.084;8.646;2023-03-19T08:31:58;2.10;;;2.10;;
20844;SDS011;10583;49.084;8.646;2023-03-19T08:34:25;1.93;;;1.93;;
20844;SDS011;10583;49.084;8.646;2023-03-19T08:36:52;2.30;;;2.30;;
20844;SDS011;10583;49.084;8.646;2023-03-19T08:39:19;2.00;;;2.00;;
20844;SDS011;10583;49.084;8.646;2023-03-19T08:41:45;2.07;;;2.07;;
20844;SDS011;10583;49.084;8.646;2023-03-19T08:44:15;2.00;;;2.00;;
20844;SDS011;10583;49.084;8.646;2023-03-19T08:46:41;2.30;;;2.30;;
20844;SDS011;10583;49.084;8.646;2023-03-19T08:49:08;2.30;;;2.30;;
20844;SDS011;10583;49.084;8.646;2023-03-19T08:51:35;2.33;;;2.33;;
20844;SDS011;10583;49.084;8.646;2023-03-19T08:54:01;2.03;;;2.03;;
20844;SDS011;10583;49.084;8.646;2023-03-19T08:56:28;2.50;;;2.50;;
20844;SDS011;10583;49.084;8.646;2023-03-19T08:58:55;2.50;;;2.50;;
20844;SDS011;10583;49.084;8.646;2023-03-19T09:01:24;2.33;;;2.33;;
20844;SDS011;10583;49.084;8.646;2023-03-19T09:03:51;2.10;;;2.10;;
20844;SDS011;10583;49.084;8.646;2023-03-19T09:06:17;2.20;;;2.20;;
20844;SDS011;10583;49.084;8.646;2023-03-19T09:08:44;2.30;;;2.30;;
20844;SDS011;10583;49.084;8.646;2023-03-19T09:11:11;2.43;;;2.43;;
20844;SDS011;10583;49.084;8.646;2023-03-19T09:13:40;2.20;;;2.20;;
20844;SDS011;10583;49.084;8.646;2023-03-19T09:16:07;2.53;;;2.53;;
20844;SDS011;10583;49.084;8.646;2023-03-19T09:18:35;2.43;;;2.43;;
20844;SDS011;10583;49.084;8.646;2023-03-19T09:21:02;2.00;;;2.00;;
20844;SDS011;10583;49.084;8.646;2023-03-19T09:23:29;2.27;;;2.27;;
20844;SDS011;10583;49.084;8.646;2023-03-19T09:25:56;2.40;;;2.40;;
20844;SDS011;10583;49.084;8.646;2023-03-19T09:28:23;2.23;;;2.23;;
20844;SDS011;10583;49.084;8.646;2023-03-19T09:30:50;2.50;;;2.50;;
20844;SDS011;10583;49.084;8.646;2023-03-19T09:33:18;2.30;;;2.30;;
20844;SDS011;10583;49.084;8.646;2023-03-19T09:35:49;1.90;;;1.90;;
20844;SDS011;10583;49.084;8.646;2023-03-19T09:38:17;1.93;;;1.93;;
20844;SDS011;10583;49.084;8.646;2023-03-19T09:40:45;1.33;;;1.33;;
20844;SDS011;10583;49.084;8.646;2023-03-19T09:43:22;1.90;;;1.90;;
20844;SDS011;10583;49.084;8.646;2023-03-19T09:46:05;1.80;;;1.80;;
20844;SDS011;10583;49.084;8.646;2023-03-19T09:48:39;1.97;;;1.97;;
20844;SDS011;10583;49.084;8.646;2023-03-19T09:51:14;1.87;;;1.87;;
20844;SDS011;10583;49.084;8.646;2023-03-19T09:53:46;2.03;;;2.03;;
20844;SDS011;10583;49.084;8.646;2023-03-19T09:56:19;1.93;;;1.93;;
20844;SDS011;10583;49.084;8.646;2023-03-19T09:58:45;1.80;;;1.80;;
20844;SDS011;10583;49.084;8.646;2023-03-19T10:01:17;1.87;;;1.87;;
20844;SDS011;10583;49.084;8.646;2023-03-19T10:03:57;2.00;;;2.00;;
20844;SDS011;10583;49.084;8.646;2023-03-19T10:06:44;2.10;;;2.10;;
20844;SDS011;10583;49.084;8.646;2023-03-19T10:09:14;1.97;;;1.97;;
20844;SDS011;10583;49.084;8.646;2023-03-19T10:12:04;1.90;;;1.90;;
20844;SDS011;10583;49.084;8.646;2023-03-19T10:14:42;2.07;;;2.07;;
20844;SDS011;10583;49.084;8.646;2023-03-19T10:17:21;2.10;;;2.10;;
20844;SDS011;10583;49.084;8.646;2023-03-19T10:19:54;1.80;;;1.80;;
20844;SDS011;10583;49.084;8.646;2023-03-19T10:22:26;2.00;;;2.00;;
20844;SDS011;10583;49.084;8.646;2023-03-19T10:24:58;2.20;;;2.20;;
20844;SDS011;10583;49.084;8.646;2023-03-19T10:27:26;1.90;;;1.90;;
20844;SDS011;10583;49.084;8.646;2023-03-19T10:29:53;2.08;;;2.08;;
20844;SDS011;10583;49.084;8.646;2023-03-19T10:32:25;1.80;;;1.80;;
20844;SDS011;10583;49.084;8.646;2023-03-19T10:35:02;1.88;;;1.88;;
20844;SDS011;10583;49.084;8.646;2023-03-19T10:37:35;1.60;;;1.60;;
20844;SDS011;10583;49.084;8.646;2023-03-19T10:40:02;2.13;;;2.13;;
20844;SDS011;10583;49.084;8.646;2023-03-19T10:42:45;1.80;;;1.80;;
20844;SDS011;10583;49.084;8.646;2023-03-19T10:45:30;1.90;;;1.90;;
20844;SDS011;10583;49.084;8.646;2023-03-19T10:47:58;1.80;;;1.80;;
20844;SDS011;10583;49.084;8.646;2023-03-19T10:50:27;1.83;;;1.83;;
20844;SDS011;10583;49.084;8.646;2023-03-19T10:53:02;1.60;;;1.60;;
20844;SDS011;10583;49.084;8.646;2023-03-19T10:55:32;2.20;;;2.20;;
20844;SDS011;10583;49.084;8.646;2023-03-19T10:58:03;2.00;;;2.00;;
20844;SDS011;10583;49.084;8.646;2023-03-19T11:00:31;1.87;;;1.87;;
20844;SDS011;10583;49.084;8.646;2023-03-19T11:03:00;1.77;;;1.77;;
20844;SDS011;10583;49.084;8.646;2023-03-19T11:05:29;1.83;;;1.83;;
20844;SDS011;10583;49.084;8.646;2023-03-19T11:07:57;2.10;;;2.10;;
20844;SDS011;10583;49.084;8.646;2023-03-19T11:10:28;2.00;;;2.00;;
20844;SDS011;10583;49.084;8.646;2023-03-19T11:12:56;1.97;;;1.97;;
20844;SDS011;10583;49.084;8.646;2023-03-19T11:15:26;1.70;;;1.70;;
20844;SDS011;10583;49.084;8.646;2023-03-19T11:17:58;2.20;;;2.20;;
20844;SDS011;10583;49.084;8.646;2023-03-19T11:20:27;2.00;;;2.00;;
20844;SDS011;10583;49.084;8.646;2023-03-19T11:22:56;1.92;;;1.92;;
20844;SDS011;10583;49.084;8.646;2023-03-19T11:25:39;1.70;;;1.70;;
20844;SDS011;10583;49.084;8.646;2023-03-19T11:28:07;1.88;;;1.88;;
20844;SDS011;10583;49.084;8.646;2023-03-19T11:30:39;1.73;;;1.73;;
20844;SDS011;10583;49.084;8.646;2023-03-19T11:33:19;1.77;;;1.77;;
20844;SDS011;10583;49.084;8.646;2023-03-19T11:35:59;1.67;;;1.67;;
20844;SDS011;10583;49.084;8.646;2023-03-19T11:38:32;2.30;;;2.30;;
20844;SDS011;10583;49.084;8.646;2023-03-19T11:41:10;2.30;;;2.30;;
20844;SDS011;10583;49.084;8.646;2023-03-19T11:43:43;2.70;;;2.70;;
20844;SDS011;10583;49.084;8.646;2023-03-19T11:49:24;2.40;;;2.40;;
20844;SDS011;10583;49.084;8.646;2023-03-19T11:52:10;1.97;;;1.97;;
20844;SDS011;10583;49.084;8.646;2023-03-19T11:54:43;1.97;;;1.97;;
20844;SDS011;10583;49.084;8.646;2023-03-19T11:57:25;1.90;;;1.90;;
20844;SDS011;10583;49.084;8.646;2023-03-19T12:00:05;1.83;;;1.83;;
20844;SDS011;10583;49.084;8.646;2023-03-19T12:02:52;5.57;;;5.57;;
20844;SDS011;10583;49.084;8.646;2023-03-19T12:05:48;3.70;;;3.70;;
20844;SDS011;10583;49.084;8.646;2023-03-19T12:08:24;4.50;;;4.50;;
20844;SDS011;10583;49.084;8.646;2023-03-19T12:11:00;7.93;;;7.93;;
20844;SDS011;10583;49.084;8.646;2023-03-19T12:13:45;4.77;;;4.77;;
20844;SDS011;10583;49.084;8.646;2023-03-19T12:16:26;2.20;;;2.20;;
20844;SDS011;10583;49.084;8.646;2023-03-19T12:19:19;2.20;;;2.20;;
20844;SDS011;10583;49.084;8.646;2023-03-19T12:22:03;2.00;;;2.00;;
20844;SDS011;10583;49.084;8.646;2023-03-19T12:24:43;2.47;;;2.47;;
20844;SDS011;10583;49.084;8.646;2023-03-19T12:27:25;2.10;;;2.10;;
20844;SDS011;10583;49.084;8.646;2023-03-19T12:30:00;2.00;;;2.00;;
20844;SDS011;10583;49.084;8.646;2023-03-19T12:32:48;2.30;;;2.30;;
20844;SDS011;10583;49.084;8.646;2023-03-19T12:35:26;2.43;;;2.43;;
20844;SDS011;10583;49.084;8.646;2023-03-19T12:37:59;2.63;;;2.63;;
20844;SDS011;10583;49.084;8.646;2023-03-19T12:40:31;2.57;;;2.57;;
20844;SDS011;10583;49.084;8.646;2023-03-19T12:43:04;2.30;;;2.30;;
20844;SDS011;10583;49.084;8.646;2023-03-19T12:45:41;2.33;;;2.33;;
20844;SDS011;10583;49.084;8.646;2023-03-19T12:48:11;2.23;;;2.23;;
20844;SDS011;10583;49.084;8.646;2023-03-19T12:50:42;3.13;;;3.13;;
20844;SDS011;10583;49.084;8.646;2023-03-19T12:53:16;2.43;;;2.43;;
20844;SDS011;10583;49.084;8.646;2023-03-19T12:55:52;2.60;;;2.60;;
20844;SDS011;10583;49.084;8.646;2023-03-19T12:58:24;2.00;;;2.00;;
20844;SDS011;10583;49.084;8.646;2023-03-19T13:01:04;2.17;;;2.17;;
20844;SDS011;10583;49.084;8.646;2023-03-19T13:03:37;2.10;;;2.10;;
20844;SDS011;10583;49.084;8.646;2023-03-19T13:06:13;1.87;;;1.87;;
20844;SDS011;10583;49.084;8.646;2023-03-19T13:08:46;2.07;;;2.07;;
20844;SDS011;10583;49.084;8.646;2023-03-19T13:11:20;1.90;;;1.90;;
20844;SDS011;10583;49.084;8.646;2023-03-19T13:13:57;2.77;;;2.77;;
20844;SDS011;10583;49.084;8.646;2023-03-19T13:16:32;2.40;;;2.40;;
20844;SDS011;10583;49.084;8.646;2023-03-19T13:19:06;2.20;;;2.20;;
20844;SDS011;10583;49.084;8.646;2023-03-19T13:21:43;2.40;;;2.40;;
20844;SDS011;10583;49.084;8.646;2023-03-19T13:24:14;2.37;;;2.37;;
20844;SDS011;10583;49.084;8.646;2023-03-19T13:26:47;2.70;;;2.70;;
20844;SDS011;10583;49.084;8.646;2023-03-19T13:29:16;2.50;;;2.50;;
20844;SDS011;10583;49.084;8.646;2023-03-19T13:31:46;2.73;;;2.73;;
20844;SDS011;10583;49.084;8.646;2023-03-19T13:34:18;2.40;;;2.40;;
20844;SDS011;10583;49.084;8.646;2023-03-19T13:36:51;2.37;;;2.37;;
20844;SDS011;10583;49.084;8.646;2023-03-19T13:39:19;2.17;;;2.17;;
20844;SDS011;10583;49.084;8.646;2023-03-19T13:41:53;2.10;;;2.10;;
20844;SDS011;10583;49.084;8.646;2023-03-19T13:44:33;2.20;;;2.20;;
20844;SDS011;10583;49.084;8.646;2023-03-19T13:47:02;2.70;;;2.70;;
20844;SDS011;10583;49.084;8.646;2023-03-19T13:50:10;2.50;;;2.50;;
20844;SDS011;10583;49.084;8.646;2023-03-19T13:52:48;2.40;;;2.40;;
20844;SDS011;10583;49.084;8.646;2023-03-19T13:55:28;1.97;;;1.97;;
20844;SDS011;10583;49.084;8.646;2023-03-19T13:58:04;2.13;;;2.13;;
20844;SDS011;10583;49.084;8.646;2023-03-19T14:00:55;2.47;;;2.47;;
20844;SDS011;10583;49.084;8.646;2023-03-19T14:03:25;2.40;;;2.40;;
20844;SDS011;10583;49.084;8.646;2023-03-19T14:05:54;2.63;;;2.63;;
20844;SDS011;10583;49.084;8.646;2023-03-19T14:08:23;2.70;;;2.70;;
20844;SDS011;10583;49.084;8.646;2023-03-19T14:10:52;2.20;;;2.20;;
20844;SDS011;10583;49.084;8.646;2023-03-19T14:13:32;2.30;;;2.30;;
20844;SDS011;10583;49.084;8.646;2023-03-19T14:16:05;2.53;;;2.53;;
20844;SDS011;10583;49.084;8.646;2023-03-19T14:18:39;2.00;;;2.00;;
20844;SDS011;10583;49.084;8.646;2023-03-19T14:21:08;2.20;;;2.20;;
20844;SDS011;10583;49.084;8.646;2023-03-19T14:23:39;2.30;;;2.30;;
20844;SDS011;10583;49.084;8.646;2023-03-19T14:26:09;2.27;;;2.27;;
20844;SDS011;10583;49.084;8.646;2023-03-19T14:28:44;2.53;;;2.53;;
20844;SDS011;10583;49.084;8.646;2023-03-19T14:34:20;3.03;;;3.03;;
20844;SDS011;10583;49.084;8.646;2023-03-19T14:36:54;2.67;;;2.67;;
20844;SDS011;10583;49.084;8.646;2023-03-19T14:39:25;2.60;;;2.60;;
20844;SDS011;10583;49.084;8.646;2023-03-19T14:41:57;2.53;;;2.53;;
20844;SDS011;10583;49.084;8.646;2023-03-19T14:44:36;2.50;;;2.50;;
20844;SDS011;10583;49.084;8.646;2023-03-19T14:47:22;2.23;;;2.23;;
20844;SDS011;10583;49.084;8.646;2023-03-19T14:53:22;2.10;;;2.10;;
20844;SDS011;10583;49.084;8.646;2023-03-19T14:55:53;2.30;;;2.30;;
20844;SDS011;10583;49.084;8.646;2023-03-19T14:58:20;2.60;;;2.60;;
20844;SDS011;10583;49.084;8.646;2023-03-19T15:00:48;2.33;;;2.33;;
20844;SDS011;10583;49.084;8.646;2023-03-19T15:03:20;2.00;;;2.00;;
20844;SDS011;10583;49.084;8.646;2023-03-19T15:05:55;1.90;;;1.90;;
20844;SDS011;10583;49.084;8.646;2023-03-19T15:08:25;1.90;;;1.90;;
20844;SDS011;10583;49.084;8.646;2023-03-19T15:10:56;1.83;;;1.83;;
20844;SDS011;10583;49.084;8.646;2023-03-19T15:13:42;2.17;;;2.17;;
20844;SDS011;10583;49.084;8.646;2023-03-19T15:16:30;19.07;;;18.97;;